sensor_id;sensor_type;location;lat;lon;timestamp;temperature;humidity
40153;DHT22;26371;56.992;23.912;2023-04-01T00:01:18;3.40;99.90
40153;DHT22;26371;56.992;23.912;2023-04-01T00:03:47;3.30;99.90
40153;DHT22;26371;56.992;23.912;2023-04-01T00:06:17;3.30;99.90
40153;DHT22;26371;56.992;23.912;2023-04-01T00:08:46;3.30;99.90
40153;DHT22;26371;56.992;23.912;2023-04-01T00:11:15;3.30;99.90
40153;DHT22;26371;56.992;23.912;2023-04-01T00:13:48;3.40;99.90
40153;DHT22;26371;56.992;23.912;2023-04-01T00:16:17;3.40;99.90
40153;DHT22;26371;56.992;23.912;2023-04-01T00:18:50;3.30;99.90
40153;DHT22;26371;56.992;23.912;2023-04-01T00:21:19;3.30;99.90
40153;DHT22;26371;56.992;23.912;2023-04-01T00:23:49;3.30;99.90
40153;DHT22;26371;56.992;23.912;2023-04-01T00:26:18;3.30;99.90
40153;DHT22;26371;56.992;23.912;2023-04-01T00:28:51;3.30;99.90
40153;DHT22;26371;56.992;23.912;2023-04-01T00:31:20;3.30;99.90
40153;DHT22;26371;56.992;23.912;2023-04-01T00:33:48;3.30;99.90
40153;DHT22;26371;56.992;23.912;2023-04-01T00:36:19;3.30;99.90
40153;DHT22;26371;56.992;23.912;2023-04-01T00:38:49;3.20;99.90
40153;DHT22;26371;56.992;23.912;2023-04-01T00:41:20;3.20;99.90
40153;DHT22;26371;56.992;23.912;2023-04-01T00:43:51;3.20;99.90
40153;DHT22;26371;56.992;23.912;2023-04-01T00:46:20;3.10;99.90
40153;DHT22;26371;56.992;23.912;2023-04-01T00:48:51;3.20;99.90
40153;DHT22;26371;56.992;23.912;2023-04-01T00:51:24;3.10;99.90
40153;DHT22;26371;56.992;23.912;2023-04-01T00:53:56;3.20;99.90
40153;DHT22;26371;56.992;23.912;2023-04-01T00:56:30;3.10;99.90
40153;DHT22;26371;56.992;23.912;2023-04-01T00:59:02;3.10;99.90
40153;DHT22;26371;56.992;23.912;2023-04-01T01:01:36;3.10;99.90
40153;DHT22;26371;56.992;23.912;2023-04-01T01:04:05;3.10;99.90
40153;DHT22;26371;56.992;23.912;2023-04-01T01:06:42;3.10;99.90
40153;DHT22;26371;56.992;23.912;2023-04-01T01:09:17;3.00;99.90
40153;DHT22;26371;56.992;23.912;2023-04-01T01:11:51;3.00;99.90
40153;DHT22;26371;56.992;23.912;2023-04-01T01:14:34;3.00;99.90
40153;DHT22;26371;56.992;23.912;2023-04-01T01:17:12;3.00;99.90
40153;DHT22;26371;56.992;23.912;2023-04-01T01:20:12;2.90;99.90
40153;DHT22;26371;56.992;23.912;2023-04-01T01:23:06;2.90;99.90
40153;DHT22;26371;56.992;23.912;2023-04-01T01:25:43;2.90;99.90
40153;DHT22;26371;56.992;23.912;2023-04-01T01:28:27;2.80;99.90
40153;DHT22;26371;56.992;23.912;2023-04-01T01:31:02;2.90;99.90
40153;DHT22;26371;56.992;23.912;2023-04-01T01:33:43;2.80;99.90
40153;DHT22;26371;56.992;23.912;2023-04-01T01:36:19;2.90;99.90
40153;DHT22;26371;56.992;23.912;2023-04-01T01:38:51;2.80;99.90
40153;DHT22;26371;56.992;23.912;2023-04-01T01:41:21;2.80;99.90
40153;DHT22;26371;56.992;23.912;2023-04-01T01:43:53;2.80;99.90
40153;DHT22;26371;56.992;23.912;2023-04-01T01:46:26;2.80;99.90
40153;DHT22;26371;56.992;23.912;2023-04-01T01:48:57;2.80;99.90
40153;DHT22;26371;56.992;23.912;2023-04-01T01:51:29;2.80;99.90
40153;DHT22;26371;56.992;23.912;2023-04-01T01:54:01;2.80;99.90
40153;DHT22;26371;56.992;23.912;2023-04-01T01:56:32;2.80;99.90
40153;DHT22;26371;56.992;23.912;2023-04-01T01:59:05;2.80;99.90
40153;DHT22;26371;56.992;23.912;2023-04-01T02:01:37;2.80;99.90
40153;DHT22;26371;56.992;23.912;2023-04-01T02:04:13;2.80;99.90
40153;DHT22;26371;56.992;23.912;2023-04-01T02:06:49;2.80;99.90
40153;DHT22;26371;56.992;23.912;2023-04-01T02:09:20;2.70;99.90
40153;DHT22;26371;56.992;23.912;2023-04-01T02:11:51;2.70;99.90
40153;DHT22;26371;56.992;23.912;2023-04-01T02:14:22;2.80;99.90
40153;DHT22;26371;56.992;23.912;2023-04-01T02:16:55;2.70;99.90
40153;DHT22;26371;56.992;23.912;2023-04-01T02:19:29;2.80;99.90
40153;DHT22;26371;56.992;23.912;2023-04-01T02:22:03;2.80;99.90
40153;DHT22;26371;56.992;23.912;2023-04-01T02:24:35;2.80;99.90
40153;DHT22;26371;56.992;23.912;2023-04-01T02:27:06;2.80;99.90
40153;DHT22;26371;56.992;23.912;2023-04-01T02:29:35;2.80;99.90
40153;DHT22;26371;56.992;23.912;2023-04-01T02:32:07;2.70;99.90
40153;DHT22;26371;56.992;23.912;2023-04-01T02:34:37;2.70;99.90
40153;DHT22;26371;56.992;23.912;2023-04-01T02:37:07;2.70;99.90
40153;DHT22;26371;56.992;23.912;2023-04-01T02:39:37;2.70;99.90
40153;DHT22;26371;56.992;23.912;2023-04-01T02:42:05;2.70;99.90
40153;DHT22;26371;56.992;23.912;2023-04-01T02:44:34;2.60;99.90
40153;DHT22;26371;56.992;23.912;2023-04-01T02:47:03;2.60;99.90
40153;DHT22;26371;56.992;23.912;2023-04-01T02:49:32;2.60;99.90
40153;DHT22;26371;56.992;23.912;2023-04-01T02:52:02;2.60;99.90
40153;DHT22;26371;56.992;23.912;2023-04-01T02:54:33;2.60;99.90
40153;DHT22;26371;56.992;23.912;2023-04-01T02:57:02;2.60;99.90
40153;DHT22;26371;56.992;23.912;2023-04-01T02:59:31;2.60;99.90
40153;DHT22;26371;56.992;23.912;2023-04-01T03:02:00;2.60;99.90
40153;DHT22;26371;56.992;23.912;2023-04-01T03:04:29;2.60;99.90
40153;DHT22;26371;56.992;23.912;2023-04-01T03:06:59;2.50;99.90
40153;DHT22;26371;56.992;23.912;2023-04-01T03:09:29;2.50;99.90
40153;DHT22;26371;56.992;23.912;2023-04-01T03:11:59;2.60;99.90
40153;DHT22;26371;56.992;23.912;2023-04-01T03:14:28;2.60;99.90
40153;DHT22;26371;56.992;23.912;2023-04-01T03:16:58;2.60;99.90
40153;DHT22;26371;56.992;23.912;2023-04-01T03:19:28;2.50;99.90
40153;DHT22;26371;56.992;23.912;2023-04-01T03:21:57;2.60;99.90
40153;DHT22;26371;56.992;23.912;2023-04-01T03:24:26;2.60;99.90
40153;DHT22;26371;56.992;23.912;2023-04-01T03:26:54;2.50;99.90
40153;DHT22;26371;56.992;23.912;2023-04-01T03:29:25;2.50;99.90
40153;DHT22;26371;56.992;23.912;2023-04-01T03:31:53;2.50;99.90
40153;DHT22;26371;56.992;23.912;2023-04-01T03:34:25;2.50;99.90
40153;DHT22;26371;56.992;23.912;2023-04-01T03:36:53;2.50;99.90
40153;DHT22;26371;56.992;23.912;2023-04-01T03:39:22;2.50;99.90
40153;DHT22;26371;56.992;23.912;2023-04-01T03:41:51;2.50;99.90
40153;DHT22;26371;56.992;23.912;2023-04-01T03:44:20;2.50;99.90
40153;DHT22;26371;56.992;23.912;2023-04-01T03:46:53;2.50;99.90
40153;DHT22;26371;56.992;23.912;2023-04-01T03:49:24;2.50;99.90
40153;DHT22;26371;56.992;23.912;2023-04-01T03:51:52;2.50;99.90
40153;DHT22;26371;56.992;23.912;2023-04-01T03:54:23;2.50;99.90
40153;DHT22;26371;56.992;23.912;2023-04-01T03:56:51;2.50;99.90
40153;DHT22;26371;56.992;23.912;2023-04-01T03:59:20;2.50;99.90
40153;DHT22;26371;56.992;23.912;2023-04-01T04:01:50;2.50;99.90
40153;DHT22;26371;56.992;23.912;2023-04-01T04:04:20;2.50;99.90
40153;DHT22;26371;56.992;23.912;2023-04-01T04:06:49;2.50;99.90
40153;DHT22;26371;56.992;23.912;2023-04-01T04:09:22;2.50;99.90
40153;DHT22;26371;56.992;23.912;2023-04-01T04:11:50;2.50;99.90
40153;DHT22;26371;56.992;23.912;2023-04-01T04:14:19;2.50;99.90
40153;DHT22;26371;56.992;23.912;2023-04-01T04:16:48;2.50;99.90
40153;DHT22;26371;56.992;23.912;2023-04-01T04:19:17;2.50;99.90
40153;DHT22;26371;56.992;23.912;2023-04-01T04:21:47;2.50;99.90
40153;DHT22;26371;56.992;23.912;2023-04-01T04:24:16;2.40;99.90
40153;DHT22;26371;56.992;23.912;2023-04-01T04:27:08;2.40;99.90
40153;DHT22;26371;56.992;23.912;2023-04-01T04:29:44;2.40;99.90
40153;DHT22;26371;56.992;23.912;2023-04-01T04:32:13;2.40;99.90
40153;DHT22;26371;56.992;23.912;2023-04-01T04:34:41;2.40;99.90
40153;DHT22;26371;56.992;23.912;2023-04-01T04:37:12;2.40;99.90
40153;DHT22;26371;56.992;23.912;2023-04-01T04:39:41;2.40;99.90
40153;DHT22;26371;56.992;23.912;2023-04-01T04:42:09;2.40;99.90
40153;DHT22;26371;56.992;23.912;2023-04-01T04:44:39;2.40;99.90
40153;DHT22;26371;56.992;23.912;2023-04-01T04:47:07;2.40;99.90
40153;DHT22;26371;56.992;23.912;2023-04-01T04:49:36;2.40;99.90
40153;DHT22;26371;56.992;23.912;2023-04-01T04:52:08;2.40;99.90
40153;DHT22;26371;56.992;23.912;2023-04-01T04:54:38;2.40;99.90
40153;DHT22;26371;56.992;23.912;2023-04-01T04:57:07;2.40;99.90
40153;DHT22;26371;56.992;23.912;2023-04-01T04:59:43;2.40;99.90
40153;DHT22;26371;56.992;23.912;2023-04-01T05:02:23;2.40;99.90
40153;DHT22;26371;56.992;23.912;2023-04-01T05:04:55;2.40;99.90
40153;DHT22;26371;56.992;23.912;2023-04-01T05:07:24;2.40;99.90
40153;DHT22;26371;56.992;23.912;2023-04-01T05:09:54;2.40;99.90
40153;DHT22;26371;56.992;23.912;2023-04-01T05:12:23;2.40;99.90
40153;DHT22;26371;56.992;23.912;2023-04-01T05:14:58;2.40;99.90
40153;DHT22;26371;56.992;23.912;2023-04-01T05:17:27;2.40;99.90
40153;DHT22;26371;56.992;23.912;2023-04-01T05:19:56;2.40;99.90
40153;DHT22;26371;56.992;23.912;2023-04-01T05:22:26;2.40;99.90
40153;DHT22;26371;56.992;23.912;2023-04-01T05:24:56;2.40;99.90
40153;DHT22;26371;56.992;23.912;2023-04-01T05:27:25;2.40;99.90
40153;DHT22;26371;56.992;23.912;2023-04-01T05:29:54;2.40;99.90
40153;DHT22;26371;56.992;23.912;2023-04-01T05:32:54;2.40;99.90
40153;DHT22;26371;56.992;23.912;2023-04-01T05:35:23;2.40;99.90
40153;DHT22;26371;56.992;23.912;2023-04-01T05:37:52;2.40;99.90
40153;DHT22;26371;56.992;23.912;2023-04-01T05:40:22;2.40;99.90
40153;DHT22;26371;56.992;23.912;2023-04-01T05:42:52;2.40;99.90
40153;DHT22;26371;56.992;23.912;2023-04-01T05:45:21;2.40;99.90
40153;DHT22;26371;56.992;23.912;2023-04-01T05:48:10;2.40;99.90
40153;DHT22;26371;56.992;23.912;2023-04-01T05:50:40;2.40;99.90
40153;DHT22;26371;56.992;23.912;2023-04-01T05:53:11;2.40;99.90
40153;DHT22;26371;56.992;23.912;2023-04-01T05:55:43;2.40;99.90
40153;DHT22;26371;56.992;23.912;2023-04-01T05:58:13;2.40;99.90
40153;DHT22;26371;56.992;23.912;2023-04-01T06:00:45;2.40;99.90
40153;DHT22;26371;56.992;23.912;2023-04-01T06:03:17;2.40;99.90
40153;DHT22;26371;56.992;23.912;2023-04-01T06:05:46;2.40;99.90
40153;DHT22;26371;56.992;23.912;2023-04-01T06:08:16;2.40;99.90
40153;DHT22;26371;56.992;23.912;2023-04-01T06:11:01;2.40;99.90
40153;DHT22;26371;56.992;23.912;2023-04-01T06:13:44;2.40;99.90
40153;DHT22;26371;56.992;23.912;2023-04-01T06:16:22;2.40;99.90
40153;DHT22;26371;56.992;23.912;2023-04-01T06:19:13;2.40;99.90
40153;DHT22;26371;56.992;23.912;2023-04-01T06:22:28;2.40;99.90
40153;DHT22;26371;56.992;23.912;2023-04-01T06:25:14;2.40;99.90
40153;DHT22;26371;56.992;23.912;2023-04-01T06:28:04;2.40;99.90
40153;DHT22;26371;56.992;23.912;2023-04-01T06:30:41;2.40;99.90
40153;DHT22;26371;56.992;23.912;2023-04-01T06:33:34;2.40;99.90
40153;DHT22;26371;56.992;23.912;2023-04-01T06:36:15;2.40;99.90
40153;DHT22;26371;56.992;23.912;2023-04-01T06:39:11;2.40;99.90
40153;DHT22;26371;56.992;23.912;2023-04-01T06:44:46;2.40;99.90
40153;DHT22;26371;56.992;23.912;2023-04-01T06:47:46;2.40;99.90
40153;DHT22;26371;56.992;23.912;2023-04-01T06:50:40;2.40;99.90
40153;DHT22;26371;56.992;23.912;2023-04-01T06:53:35;2.50;99.90
40153;DHT22;26371;56.992;23.912;2023-04-01T06:56:44;2.50;99.90
40153;DHT22;26371;56.992;23.912;2023-04-01T06:59:25;2.40;99.90
40153;DHT22;26371;56.992;23.912;2023-04-01T07:02:00;2.50;99.90
40153;DHT22;26371;56.992;23.912;2023-04-01T07:04:33;2.50;99.90
40153;DHT22;26371;56.992;23.912;2023-04-01T07:07:08;2.50;99.90
40153;DHT22;26371;56.992;23.912;2023-04-01T07:09:51;2.50;99.90
40153;DHT22;26371;56.992;23.912;2023-04-01T07:12:46;2.50;99.90
40153;DHT22;26371;56.992;23.912;2023-04-01T07:15:38;2.50;99.90
40153;DHT22;26371;56.992;23.912;2023-04-01T07:18:15;2.50;99.90
40153;DHT22;26371;56.992;23.912;2023-04-01T07:20:46;2.50;99.90
40153;DHT22;26371;56.992;23.912;2023-04-01T07:23:20;2.50;99.90
40153;DHT22;26371;56.992;23.912;2023-04-01T07:26:11;2.50;99.90
40153;DHT22;26371;56.992;23.912;2023-04-01T07:29:05;2.50;99.90
40153;DHT22;26371;56.992;23.912;2023-04-01T07:35:02;2.60;99.90
40153;DHT22;26371;56.992;23.912;2023-04-01T07:37:36;2.60;99.90
40153;DHT22;26371;56.992;23.912;2023-04-01T07:40:19;2.60;99.90
40153;DHT22;26371;56.992;23.912;2023-04-01T07:43:02;2.60;99.90
40153;DHT22;26371;56.992;23.912;2023-04-01T07:45:39;2.60;99.90
40153;DHT22;26371;56.992;23.912;2023-04-01T07:48:19;2.60;99.90
40153;DHT22;26371;56.992;23.912;2023-04-01T07:50:56;2.60;99.90
40153;DHT22;26371;56.992;23.912;2023-04-01T07:53:36;2.70;99.90
40153;DHT22;26371;56.992;23.912;2023-04-01T07:56:10;2.60;99.90
40153;DHT22;26371;56.992;23.912;2023-04-01T07:58:52;2.70;99.90
40153;DHT22;26371;56.992;23.912;2023-04-01T08:02:02;2.70;99.90
40153;DHT22;26371;56.992;23.912;2023-04-01T08:04:44;2.70;99.90
40153;DHT22;26371;56.992;23.912;2023-04-01T08:07:21;2.70;99.90
40153;DHT22;26371;56.992;23.912;2023-04-01T08:10:32;2.70;99.90
40153;DHT22;26371;56.992;23.912;2023-04-01T08:13:29;2.80;99.90
40153;DHT22;26371;56.992;23.912;2023-04-01T08:16:40;2.70;99.90
40153;DHT22;26371;56.992;23.912;2023-04-01T08:19:26;2.80;99.90
40153;DHT22;26371;56.992;23.912;2023-04-01T08:22:07;2.70;99.90
40153;DHT22;26371;56.992;23.912;2023-04-01T08:24:42;2.80;99.90
40153;DHT22;26371;56.992;23.912;2023-04-01T08:27:24;2.70;99.90
40153;DHT22;26371;56.992;23.912;2023-04-01T08:29:59;2.80;99.90
40153;DHT22;26371;56.992;23.912;2023-04-01T08:32:36;2.70;99.90
40153;DHT22;26371;56.992;23.912;2023-04-01T08:35:09;2.70;99.90
40153;DHT22;26371;56.992;23.912;2023-04-01T08:37:44;2.70;99.90
40153;DHT22;26371;56.992;23.912;2023-04-01T08:40:37;2.70;99.90
40153;DHT22;26371;56.992;23.912;2023-04-01T08:43:12;2.70;99.90
40153;DHT22;26371;56.992;23.912;2023-04-01T08:45:53;2.60;99.90
40153;DHT22;26371;56.992;23.912;2023-04-01T08:48:50;2.60;99.90
40153;DHT22;26371;56.992;23.912;2023-04-01T08:58:17;2.50;99.90
40153;DHT22;26371;56.992;23.912;2023-04-01T09:01:16;2.50;99.90
40153;DHT22;26371;56.992;23.912;2023-04-01T09:06:56;2.50;99.90
40153;DHT22;26371;56.992;23.912;2023-04-01T09:10:11;2.50;99.90
40153;DHT22;26371;56.992;23.912;2023-04-01T09:12:56;2.50;99.90
40153;DHT22;26371;56.992;23.912;2023-04-01T09:18:43;2.50;99.90
40153;DHT22;26371;56.992;23.912;2023-04-01T09:21:28;2.50;99.90
40153;DHT22;26371;56.992;23.912;2023-04-01T09:24:26;2.50;99.90
40153;DHT22;26371;56.992;23.912;2023-04-01T09:27:04;2.60;99.90
40153;DHT22;26371;56.992;23.912;2023-04-01T09:30:05;2.60;99.90
40153;DHT22;26371;56.992;23.912;2023-04-01T09:33:11;2.50;99.90
40153;DHT22;26371;56.992;23.912;2023-04-01T09:35:47;2.50;99.90
40153;DHT22;26371;56.992;23.912;2023-04-01T09:38:22;2.50;99.90
40153;DHT22;26371;56.992;23.912;2023-04-01T09:40:56;2.50;99.90
40153;DHT22;26371;56.992;23.912;2023-04-01T09:43:47;2.50;99.90
40153;DHT22;26371;56.992;23.912;2023-04-01T09:46:23;2.60;99.90
40153;DHT22;26371;56.992;23.912;2023-04-01T09:52:08;2.60;99.90
40153;DHT22;26371;56.992;23.912;2023-04-01T10:04:44;2.50;99.90
40153;DHT22;26371;56.992;23.912;2023-04-01T10:10:39;2.60;99.90
40153;DHT22;26371;56.992;23.912;2023-04-01T10:13:45;2.60;99.90
40153;DHT22;26371;56.992;23.912;2023-04-01T10:19:46;2.70;99.90
40153;DHT22;26371;56.992;23.912;2023-04-01T10:32:28;2.60;99.90
40153;DHT22;26371;56.992;23.912;2023-04-01T10:35:24;2.60;99.90
40153;DHT22;26371;56.992;23.912;2023-04-01T10:38:34;2.60;99.90
40153;DHT22;26371;56.992;23.912;2023-04-01T10:45:04;2.70;99.90
40153;DHT22;26371;56.992;23.912;2023-04-01T10:48:04;2.80;99.90
40153;DHT22;26371;56.992;23.912;2023-04-01T10:51:04;2.80;99.90
40153;DHT22;26371;56.992;23.912;2023-04-01T10:53:46;2.90;99.90
40153;DHT22;26371;56.992;23.912;2023-04-01T11:03:46;2.90;99.90
40153;DHT22;26371;56.992;23.912;2023-04-01T11:07:04;2.90;99.90
40153;DHT22;26371;56.992;23.912;2023-04-01T11:16:19;2.90;99.90
40153;DHT22;26371;56.992;23.912;2023-04-01T11:22:54;3.00;99.90
40153;DHT22;26371;56.992;23.912;2023-04-01T11:26:07;3.10;99.90
40153;DHT22;26371;56.992;23.912;2023-04-01T11:29:27;3.10;99.90
40153;DHT22;26371;56.992;23.912;2023-04-01T11:32:24;3.00;99.90
40153;DHT22;26371;56.992;23.912;2023-04-01T11:35:12;3.00;99.90
40153;DHT22;26371;56.992;23.912;2023-04-01T11:37:46;2.90;99.90
40153;DHT22;26371;56.992;23.912;2023-04-01T11:40:47;3.00;99.90
40153;DHT22;26371;56.992;23.912;2023-04-01T11:43:42;3.00;99.90
40153;DHT22;26371;56.992;23.912;2023-04-01T11:46:39;3.10;99.90
40153;DHT22;26371;56.992;23.912;2023-04-01T11:49:29;3.10;99.90
40153;DHT22;26371;56.992;23.912;2023-04-01T11:52:28;3.10;99.90
40153;DHT22;26371;56.992;23.912;2023-04-01T11:55:21;3.10;99.90
40153;DHT22;26371;56.992;23.912;2023-04-01T11:58:04;3.10;99.90
40153;DHT22;26371;56.992;23.912;2023-04-01T12:00:50;3.10;99.90
40153;DHT22;26371;56.992;23.912;2023-04-01T12:03:37;3.10;99.90
40153;DHT22;26371;56.992;23.912;2023-04-01T12:06:14;3.10;99.90
40153;DHT22;26371;56.992;23.912;2023-04-01T12:08:50;3.10;99.90
40153;DHT22;26371;56.992;23.912;2023-04-01T12:11:32;3.10;99.90
40153;DHT22;26371;56.992;23.912;2023-04-01T12:14:10;3.10;99.90
40153;DHT22;26371;56.992;23.912;2023-04-01T12:16:49;3.10;99.90
40153;DHT22;26371;56.992;23.912;2023-04-01T12:19:29;3.20;99.90
40153;DHT22;26371;56.992;23.912;2023-04-01T12:24:58;3.20;99.90
40153;DHT22;26371;56.992;23.912;2023-04-01T12:27:41;3.30;99.90
40153;DHT22;26371;56.992;23.912;2023-04-01T12:30:28;3.30;99.90
40153;DHT22;26371;56.992;23.912;2023-04-01T12:35:59;3.30;99.90
40153;DHT22;26371;56.992;23.912;2023-04-01T12:38:38;3.30;99.90
40153;DHT22;26371;56.992;23.912;2023-04-01T12:41:14;3.40;99.90
40153;DHT22;26371;56.992;23.912;2023-04-01T12:44:10;3.40;99.90
40153;DHT22;26371;56.992;23.912;2023-04-01T12:47:00;3.40;99.90
40153;DHT22;26371;56.992;23.912;2023-04-01T12:52:59;3.40;99.90
40153;DHT22;26371;56.992;23.912;2023-04-01T12:56:00;3.40;99.90
40153;DHT22;26371;56.992;23.912;2023-04-01T12:58:52;3.40;99.90
40153;DHT22;26371;56.992;23.912;2023-04-01T13:01:45;3.40;99.90
40153;DHT22;26371;56.992;23.912;2023-04-01T13:04:34;3.40;99.90
40153;DHT22;26371;56.992;23.912;2023-04-01T13:07:20;3.40;99.90
40153;DHT22;26371;56.992;23.912;2023-04-01T13:09:59;3.40;99.90
40153;DHT22;26371;56.992;23.912;2023-04-01T13:12:51;3.40;99.90
40153;DHT22;26371;56.992;23.912;2023-04-01T13:15:28;3.40;99.90
40153;DHT22;26371;56.992;23.912;2023-04-01T13:18:05;3.40;99.90
40153;DHT22;26371;56.992;23.912;2023-04-01T13:20:44;3.50;99.90
40153;DHT22;26371;56.992;23.912;2023-04-01T13:23:31;3.50;99.90
40153;DHT22;26371;56.992;23.912;2023-04-01T13:26:09;3.50;99.90
40153;DHT22;26371;56.992;23.912;2023-04-01T13:28:47;3.50;99.90
40153;DHT22;26371;56.992;23.912;2023-04-01T13:31:30;3.50;99.90
40153;DHT22;26371;56.992;23.912;2023-04-01T13:34:29;3.50;99.90
40153;DHT22;26371;56.992;23.912;2023-04-01T13:37:13;3.40;99.90
40153;DHT22;26371;56.992;23.912;2023-04-01T13:40:00;3.50;99.90
40153;DHT22;26371;56.992;23.912;2023-04-01T13:42:34;3.40;99.90
40153;DHT22;26371;56.992;23.912;2023-04-01T13:45:11;3.40;99.90
40153;DHT22;26371;56.992;23.912;2023-04-01T13:48:18;3.40;99.90
40153;DHT22;26371;56.992;23.912;2023-04-01T13:54:15;3.40;99.90
40153;DHT22;26371;56.992;23.912;2023-04-01T13:56:54;3.40;99.90
40153;DHT22;26371;56.992;23.912;2023-04-01T13:59:37;3.50;99.90
40153;DHT22;26371;56.992;23.912;2023-04-01T14:02:29;3.50;99.90
40153;DHT22;26371;56.992;23.912;2023-04-01T14:05:23;3.50;99.90
40153;DHT22;26371;56.992;23.912;2023-04-01T14:08:17;3.50;99.90
40153;DHT22;26371;56.992;23.912;2023-04-01T14:10:59;3.60;99.90
40153;DHT22;26371;56.992;23.912;2023-04-01T14:13:37;3.50;99.90
40153;DHT22;26371;56.992;23.912;2023-04-01T14:16:25;3.50;99.90
40153;DHT22;26371;56.992;23.912;2023-04-01T14:19:11;3.40;99.90
40153;DHT22;26371;56.992;23.912;2023-04-01T14:21:55;3.40;99.90
40153;DHT22;26371;56.992;23.912;2023-04-01T14:24:46;3.40;99.90
40153;DHT22;26371;56.992;23.912;2023-04-01T14:27:38;3.30;99.90
40153;DHT22;26371;56.992;23.912;2023-04-01T14:30:27;3.30;99.90
40153;DHT22;26371;56.992;23.912;2023-04-01T14:33:10;3.20;99.90
40153;DHT22;26371;56.992;23.912;2023-04-01T14:35:49;3.30;99.90
40153;DHT22;26371;56.992;23.912;2023-04-01T14:38:43;3.20;99.90
40153;DHT22;26371;56.992;23.912;2023-04-01T14:41:23;3.20;99.90
40153;DHT22;26371;56.992;23.912;2023-04-01T14:44:27;3.20;99.90
40153;DHT22;26371;56.992;23.912;2023-04-01T14:50:05;3.20;99.90
40153;DHT22;26371;56.992;23.912;2023-04-01T14:52:37;3.10;99.90
40153;DHT22;26371;56.992;23.912;2023-04-01T14:55:25;3.10;99.90
40153;DHT22;26371;56.992;23.912;2023-04-01T14:58:00;3.10;99.90
40153;DHT22;26371;56.992;23.912;2023-04-01T15:00:47;3.10;99.90
40153;DHT22;26371;56.992;23.912;2023-04-01T15:03:20;3.10;99.90
40153;DHT22;26371;56.992;23.912;2023-04-01T15:05:56;3.00;99.90
40153;DHT22;26371;56.992;23.912;2023-04-01T15:08:28;3.00;99.90
40153;DHT22;26371;56.992;23.912;2023-04-01T15:11:21;3.00;99.90
40153;DHT22;26371;56.992;23.912;2023-04-01T15:14:28;3.00;99.90
40153;DHT22;26371;56.992;23.912;2023-04-01T15:17:29;3.00;99.90
40153;DHT22;26371;56.992;23.912;2023-04-01T15:20:25;3.00;99.90
40153;DHT22;26371;56.992;23.912;2023-04-01T15:23:06;2.90;99.90
40153;DHT22;26371;56.992;23.912;2023-04-01T15:25:59;2.90;99.90
40153;DHT22;26371;56.992;23.912;2023-04-01T15:28:39;2.90;99.90
40153;DHT22;26371;56.992;23.912;2023-04-01T15:31:17;2.90;99.90
40153;DHT22;26371;56.992;23.912;2023-04-01T15:34:02;2.80;99.90
40153;DHT22;26371;56.992;23.912;2023-04-01T15:36:38;2.90;99.90
40153;DHT22;26371;56.992;23.912;2023-04-01T15:39:14;2.80;99.90
40153;DHT22;26371;56.992;23.912;2023-04-01T15:42:04;2.80;99.90
40153;DHT22;26371;56.992;23.912;2023-04-01T15:44:53;2.80;99.90
40153;DHT22;26371;56.992;23.912;2023-04-01T15:47:37;2.80;99.90
40153;DHT22;26371;56.992;23.912;2023-04-01T15:50:32;2.80;99.90
40153;DHT22;26371;56.992;23.912;2023-04-01T15:53:16;2.80;99.90
40153;DHT22;26371;56.992;23.912;2023-04-01T15:55:51;2.80;99.90
40153;DHT22;26371;56.992;23.912;2023-04-01T15:58:37;2.80;99.90
40153;DHT22;26371;56.992;23.912;2023-04-01T16:01:21;2.80;99.90
40153;DHT22;26371;56.992;23.912;2023-04-01T16:03:55;2.80;99.90
40153;DHT22;26371;56.992;23.912;2023-04-01T16:06:40;2.80;99.90
40153;DHT22;26371;56.992;23.912;2023-04-01T16:09:36;2.80;99.90
40153;DHT22;26371;56.992;23.912;2023-04-01T16:12:15;2.80;99.90
40153;DHT22;26371;56.992;23.912;2023-04-01T16:14:55;2.80;99.90
40153;DHT22;26371;56.992;23.912;2023-04-01T16:17:38;2.80;99.90
40153;DHT22;26371;56.992;23.912;2023-04-01T16:20:18;2.70;99.90
40153;DHT22;26371;56.992;23.912;2023-04-01T16:22:55;2.70;99.90
40153;DHT22;26371;56.992;23.912;2023-04-01T16:25:32;2.70;99.90
40153;DHT22;26371;56.992;23.912;2023-04-01T16:28:22;2.70;99.90
40153;DHT22;26371;56.992;23.912;2023-04-01T16:30:58;2.70;99.90
40153;DHT22;26371;56.992;23.912;2023-04-01T16:33:38;2.70;99.90
40153;DHT22;26371;56.992;23.912;2023-04-01T16:36:13;2.70;99.90
40153;DHT22;26371;56.992;23.912;2023-04-01T16:38:50;2.70;99.90
40153;DHT22;26371;56.992;23.912;2023-04-01T16:41:25;2.60;99.90
40153;DHT22;26371;56.992;23.912;2023-04-01T16:44:08;2.70;99.90
40153;DHT22;26371;56.992;23.912;2023-04-01T16:46:40;2.70;99.90
40153;DHT22;26371;56.992;23.912;2023-04-01T16:49:31;2.70;99.90
40153;DHT22;26371;56.992;23.912;2023-04-01T16:52:05;2.60;99.90
40153;DHT22;26371;56.992;23.912;2023-04-01T16:54:45;2.60;99.90
40153;DHT22;26371;56.992;23.912;2023-04-01T16:57:20;2.60;99.90
40153;DHT22;26371;56.992;23.912;2023-04-01T16:59:56;2.60;99.90
40153;DHT22;26371;56.992;23.912;2023-04-01T17:02:31;2.60;99.90
40153;DHT22;26371;56.992;23.912;2023-04-01T17:05:04;2.60;99.90
40153;DHT22;26371;56.992;23.912;2023-04-01T17:07:45;2.60;99.90
40153;DHT22;26371;56.992;23.912;2023-04-01T17:13:26;2.60;99.90
40153;DHT22;26371;56.992;23.912;2023-04-01T17:16:06;2.60;99.90
40153;DHT22;26371;56.992;23.912;2023-04-01T17:18:44;2.60;99.90
40153;DHT22;26371;56.992;23.912;2023-04-01T17:21:20;2.60;99.90
40153;DHT22;26371;56.992;23.912;2023-04-01T17:23:52;2.60;99.90
40153;DHT22;26371;56.992;23.912;2023-04-01T17:26:32;2.60;99.90
40153;DHT22;26371;56.992;23.912;2023-04-01T17:29:12;2.60;99.90
40153;DHT22;26371;56.992;23.912;2023-04-01T17:31:49;2.70;99.90
40153;DHT22;26371;56.992;23.912;2023-04-01T17:34:35;2.60;99.90
40153;DHT22;26371;56.992;23.912;2023-04-01T17:37:23;2.60;99.90
40153;DHT22;26371;56.992;23.912;2023-04-01T17:40:03;2.70;99.90
40153;DHT22;26371;56.992;23.912;2023-04-01T17:42:37;2.70;99.90
40153;DHT22;26371;56.992;23.912;2023-04-01T17:45:19;2.70;99.90
40153;DHT22;26371;56.992;23.912;2023-04-01T17:47:58;2.60;99.90
40153;DHT22;26371;56.992;23.912;2023-04-01T17:50:43;2.60;99.90
40153;DHT22;26371;56.992;23.912;2023-04-01T17:53:34;2.60;99.90
40153;DHT22;26371;56.992;23.912;2023-04-01T17:56:09;2.60;99.90
40153;DHT22;26371;56.992;23.912;2023-04-01T17:58:45;2.60;99.90
40153;DHT22;26371;56.992;23.912;2023-04-01T18:01:24;2.60;99.90
40153;DHT22;26371;56.992;23.912;2023-04-01T18:07:04;2.60;99.90
40153;DHT22;26371;56.992;23.912;2023-04-01T18:09:44;2.60;99.90
40153;DHT22;26371;56.992;23.912;2023-04-01T18:12:22;2.50;99.90
40153;DHT22;26371;56.992;23.912;2023-04-01T18:15:10;2.50;99.90
40153;DHT22;26371;56.992;23.912;2023-04-01T18:18:07;2.50;99.90
40153;DHT22;26371;56.992;23.912;2023-04-01T18:20:47;2.50;99.90